sensor_id;sensor_type;location;lat;lon;timestamp;temperature;humidity
33717;DHT22;20046;50.746;7.072;2024-03-07T00:00:11;5.10;99.90
33717;DHT22;20046;50.746;7.072;2024-03-07T00:02:50;5.00;99.90
33717;DHT22;20046;50.746;7.072;2024-03-07T00:05:16;4.90;99.90
33717;DHT22;20046;50.746;7.072;2024-03-07T00:07:43;4.90;99.90
33717;DHT22;20046;50.746;7.072;2024-03-07T00:10:09;4.80;99.90
33717;DHT22;20046;50.746;7.072;2024-03-07T00:12:35;4.80;99.90
33717;DHT22;20046;50.746;7.072;2024-03-07T00:15:02;4.80;99.90
33717;DHT22;20046;50.746;7.072;2024-03-07T00:17:27;4.70;99.90
33717;DHT22;20046;50.746;7.072;2024-03-07T00:19:53;4.70;99.90
33717;DHT22;20046;50.746;7.072;2024-03-07T00:22:18;4.70;99.90
33717;DHT22;20046;50.746;7.072;2024-03-07T00:24:44;4.70;99.90
33717;DHT22;20046;50.746;7.072;2024-03-07T00:27:13;4.70;99.90
33717;DHT22;20046;50.746;7.072;2024-03-07T00:29:40;4.60;99.90
33717;DHT22;20046;50.746;7.072;2024-03-07T00:32:06;4.60;99.90
33717;DHT22;20046;50.746;7.072;2024-03-07T00:34:32;4.50;99.90
33717;DHT22;20046;50.746;7.072;2024-03-07T00:36:58;4.50;99.90
33717;DHT22;20046;50.746;7.072;2024-03-07T00:39:24;4.50;99.90
33717;DHT22;20046;50.746;7.072;2024-03-07T00:41:50;4.40;99.90
33717;DHT22;20046;50.746;7.072;2024-03-07T00:44:16;4.40;99.90
33717;DHT22;20046;50.746;7.072;2024-03-07T00:46:42;4.40;99.90
33717;DHT22;20046;50.746;7.072;2024-03-07T00:49:08;4.40;99.90
33717;DHT22;20046;50.746;7.072;2024-03-07T00:51:34;4.30;99.90
33717;DHT22;20046;50.746;7.072;2024-03-07T00:54:00;4.30;99.90
33717;DHT22;20046;50.746;7.072;2024-03-07T00:56:26;4.20;99.90
33717;DHT22;20046;50.746;7.072;2024-03-07T00:58:53;4.20;99.90
33717;DHT22;20046;50.746;7.072;2024-03-07T01:01:19;4.10;99.90
33717;DHT22;20046;50.746;7.072;2024-03-07T01:03:45;4.10;99.90
33717;DHT22;20046;50.746;7.072;2024-03-07T01:06:11;4.00;99.90
33717;DHT22;20046;50.746;7.072;2024-03-07T01:08:37;4.00;99.90
33717;DHT22;20046;50.746;7.072;2024-03-07T01:11:04;3.90;99.90
33717;DHT22;20046;50.746;7.072;2024-03-07T01:13:38;3.90;99.90
33717;DHT22;20046;50.746;7.072;2024-03-07T01:16:04;3.90;99.90
33717;DHT22;20046;50.746;7.072;2024-03-07T01:18:30;3.80;99.90
33717;DHT22;20046;50.746;7.072;2024-03-07T01:21:01;3.80;99.90
33717;DHT22;20046;50.746;7.072;2024-03-07T01:23:28;3.70;99.90
33717;DHT22;20046;50.746;7.072;2024-03-07T01:25:57;3.80;99.90
33717;DHT22;20046;50.746;7.072;2024-03-07T01:28:24;3.70;99.90
33717;DHT22;20046;50.746;7.072;2024-03-07T01:30:50;3.60;99.90
33717;DHT22;20046;50.746;7.072;2024-03-07T01:33:16;3.70;99.90
33717;DHT22;20046;50.746;7.072;2024-03-07T01:35:42;3.70;99.90
33717;DHT22;20046;50.746;7.072;2024-03-07T01:38:07;3.70;99.90
33717;DHT22;20046;50.746;7.072;2024-03-07T01:40:36;3.70;99.90
33717;DHT22;20046;50.746;7.072;2024-03-07T01:43:02;3.60;99.90
33717;DHT22;20046;50.746;7.072;2024-03-07T01:45:28;3.50;99.90
33717;DHT22;20046;50.746;7.072;2024-03-07T01:47:54;3.50;99.90
33717;DHT22;20046;50.746;7.072;2024-03-07T01:50:21;3.50;99.90
33717;DHT22;20046;50.746;7.072;2024-03-07T01:52:47;3.40;99.90
33717;DHT22;20046;50.746;7.072;2024-03-07T01:55:13;3.40;99.90
33717;DHT22;20046;50.746;7.072;2024-03-07T01:57:39;3.40;99.90
33717;DHT22;20046;50.746;7.072;2024-03-07T02:00:05;3.40;99.90
33717;DHT22;20046;50.746;7.072;2024-03-07T02:02:41;3.40;99.90
33717;DHT22;20046;50.746;7.072;2024-03-07T02:05:08;3.40;99.90
33717;DHT22;20046;50.746;7.072;2024-03-07T02:07:33;3.40;99.90
33717;DHT22;20046;50.746;7.072;2024-03-07T02:10:03;3.40;99.90
33717;DHT22;20046;50.746;7.072;2024-03-07T02:12:31;3.40;99.90
33717;DHT22;20046;50.746;7.072;2024-03-07T02:14:57;3.40;99.90
33717;DHT22;20046;50.746;7.072;2024-03-07T02:17:24;3.30;99.90
33717;DHT22;20046;50.746;7.072;2024-03-07T02:19:50;3.30;99.90
33717;DHT22;20046;50.746;7.072;2024-03-07T02:22:16;3.20;99.90
33717;DHT22;20046;50.746;7.072;2024-03-07T02:24:42;3.10;99.90
33717;DHT22;20046;50.746;7.072;2024-03-07T02:27:07;3.00;99.90
33717;DHT22;20046;50.746;7.072;2024-03-07T02:29:35;3.00;99.90
33717;DHT22;20046;50.746;7.072;2024-03-07T02:32:02;2.90;99.90
33717;DHT22;20046;50.746;7.072;2024-03-07T02:34:28;2.90;99.90
33717;DHT22;20046;50.746;7.072;2024-03-07T02:36:53;2.90;99.90
33717;DHT22;20046;50.746;7.072;2024-03-07T02:39:19;2.90;99.90
33717;DHT22;20046;50.746;7.072;2024-03-07T02:41:46;2.90;99.90
33717;DHT22;20046;50.746;7.072;2024-03-07T02:44:13;2.90;99.90
33717;DHT22;20046;50.746;7.072;2024-03-07T02:46:40;2.90;99.90
33717;DHT22;20046;50.746;7.072;2024-03-07T02:49:05;2.90;99.90
33717;DHT22;20046;50.746;7.072;2024-03-07T02:51:31;2.80;99.90
33717;DHT22;20046;50.746;7.072;2024-03-07T02:53:57;2.80;99.90
33717;DHT22;20046;50.746;7.072;2024-03-07T02:56:23;2.80;99.90
33717;DHT22;20046;50.746;7.072;2024-03-07T02:58:49;2.80;99.90
33717;DHT22;20046;50.746;7.072;2024-03-07T03:01:14;2.70;99.90
33717;DHT22;20046;50.746;7.072;2024-03-07T03:03:40;2.70;99.90
33717;DHT22;20046;50.746;7.072;2024-03-07T03:06:08;2.70;99.90
33717;DHT22;20046;50.746;7.072;2024-03-07T03:08:34;2.70;99.90
33717;DHT22;20046;50.746;7.072;2024-03-07T03:11:00;2.70;99.90
33717;DHT22;20046;50.746;7.072;2024-03-07T03:13:25;2.60;99.90
33717;DHT22;20046;50.746;7.072;2024-03-07T03:15:55;2.60;99.90
33717;DHT22;20046;50.746;7.072;2024-03-07T03:18:23;2.60;99.90
33717;DHT22;20046;50.746;7.072;2024-03-07T03:20:52;2.60;99.90
33717;DHT22;20046;50.746;7.072;2024-03-07T03:23:18;2.50;99.90
33717;DHT22;20046;50.746;7.072;2024-03-07T03:25:44;2.50;99.90
33717;DHT22;20046;50.746;7.072;2024-03-07T03:28:10;2.50;99.90
33717;DHT22;20046;50.746;7.072;2024-03-07T03:30:40;2.50;99.90
33717;DHT22;20046;50.746;7.072;2024-03-07T03:33:09;2.40;99.90
33717;DHT22;20046;50.746;7.072;2024-03-07T03:35:36;2.40;99.90
33717;DHT22;20046;50.746;7.072;2024-03-07T03:38:02;2.30;99.90
33717;DHT22;20046;50.746;7.072;2024-03-07T03:40:27;2.30;99.90
33717;DHT22;20046;50.746;7.072;2024-03-07T03:42:53;2.30;99.90
33717;DHT22;20046;50.746;7.072;2024-03-07T03:45:19;2.30;99.90
33717;DHT22;20046;50.746;7.072;2024-03-07T03:47:45;2.40;99.90
33717;DHT22;20046;50.746;7.072;2024-03-07T03:50:11;2.30;99.90
33717;DHT22;20046;50.746;7.072;2024-03-07T03:52:39;2.30;99.90
33717;DHT22;20046;50.746;7.072;2024-03-07T03:55:05;2.20;99.90
33717;DHT22;20046;50.746;7.072;2024-03-07T03:57:31;2.20;99.90
33717;DHT22;20046;50.746;7.072;2024-03-07T03:59:57;2.20;99.90
33717;DHT22;20046;50.746;7.072;2024-03-07T04:02:23;2.20;99.90
33717;DHT22;20046;50.746;7.072;2024-03-07T04:04:50;2.20;99.90
33717;DHT22;20046;50.746;7.072;2024-03-07T04:07:17;2.20;99.90
33717;DHT22;20046;50.746;7.072;2024-03-07T04:09:43;2.20;99.90
33717;DHT22;20046;50.746;7.072;2024-03-07T04:12:09;2.20;99.90
33717;DHT22;20046;50.746;7.072;2024-03-07T04:14:39;2.20;99.90
33717;DHT22;20046;50.746;7.072;2024-03-07T04:17:06;2.10;99.90
33717;DHT22;20046;50.746;7.072;2024-03-07T04:19:40;2.20;99.90
33717;DHT22;20046;50.746;7.072;2024-03-07T04:22:06;2.20;99.90
33717;DHT22;20046;50.746;7.072;2024-03-07T04:24:34;2.20;99.90
33717;DHT22;20046;50.746;7.072;2024-03-07T04:27:00;2.10;99.90
33717;DHT22;20046;50.746;7.072;2024-03-07T04:29:32;2.10;99.90
33717;DHT22;20046;50.746;7.072;2024-03-07T04:31:59;2.10;99.90
33717;DHT22;20046;50.746;7.072;2024-03-07T04:34:25;2.00;99.90
33717;DHT22;20046;50.746;7.072;2024-03-07T04:36:50;2.00;99.90
33717;DHT22;20046;50.746;7.072;2024-03-07T04:39:16;1.90;99.90
33717;DHT22;20046;50.746;7.072;2024-03-07T04:41:53;1.90;99.90
33717;DHT22;20046;50.746;7.072;2024-03-07T04:44:20;1.90;99.90
33717;DHT22;20046;50.746;7.072;2024-03-07T04:46:49;2.00;99.90
33717;DHT22;20046;50.746;7.072;2024-03-07T04:49:23;2.00;99.90
33717;DHT22;20046;50.746;7.072;2024-03-07T04:51:53;2.20;99.90
33717;DHT22;20046;50.746;7.072;2024-03-07T04:54:20;2.20;99.90
33717;DHT22;20046;50.746;7.072;2024-03-07T04:56:46;2.30;99.90
33717;DHT22;20046;50.746;7.072;2024-03-07T04:59:13;2.30;99.90
33717;DHT22;20046;50.746;7.072;2024-03-07T05:01:42;2.30;99.90
33717;DHT22;20046;50.746;7.072;2024-03-07T05:04:07;2.40;99.90
33717;DHT22;20046;50.746;7.072;2024-03-07T05:06:33;2.40;99.90
33717;DHT22;20046;50.746;7.072;2024-03-07T05:09:03;2.40;99.90
33717;DHT22;20046;50.746;7.072;2024-03-07T05:11:31;2.40;99.90
33717;DHT22;20046;50.746;7.072;2024-03-07T05:13:57;2.50;99.90
33717;DHT22;20046;50.746;7.072;2024-03-07T05:16:26;2.50;99.90
33717;DHT22;20046;50.746;7.072;2024-03-07T05:18:52;2.50;99.90
33717;DHT22;20046;50.746;7.072;2024-03-07T05:21:21;2.50;99.90
33717;DHT22;20046;50.746;7.072;2024-03-07T05:24:07;2.50;99.90
33717;DHT22;20046;50.746;7.072;2024-03-07T05:26:36;2.50;99.90
33717;DHT22;20046;50.746;7.072;2024-03-07T05:29:09;2.60;99.90
33717;DHT22;20046;50.746;7.072;2024-03-07T05:31:39;2.60;99.90
33717;DHT22;20046;50.746;7.072;2024-03-07T05:34:12;2.60;99.90
33717;DHT22;20046;50.746;7.072;2024-03-07T05:36:38;2.70;99.90
33717;DHT22;20046;50.746;7.072;2024-03-07T05:39:09;2.70;99.90
33717;DHT22;20046;50.746;7.072;2024-03-07T05:41:39;2.80;99.90
33717;DHT22;20046;50.746;7.072;2024-03-07T05:44:06;2.80;99.90
33717;DHT22;20046;50.746;7.072;2024-03-07T05:46:36;2.80;99.90
33717;DHT22;20046;50.746;7.072;2024-03-07T05:49:03;2.80;99.90
33717;DHT22;20046;50.746;7.072;2024-03-07T05:51:29;2.90;99.90
33717;DHT22;20046;50.746;7.072;2024-03-07T05:53:55;2.90;99.90
33717;DHT22;20046;50.746;7.072;2024-03-07T05:56:20;2.90;99.90
33717;DHT22;20046;50.746;7.072;2024-03-07T05:58:46;2.90;99.90
33717;DHT22;20046;50.746;7.072;2024-03-07T06:01:11;3.00;99.90
33717;DHT22;20046;50.746;7.072;2024-03-07T06:03:37;3.10;99.90
33717;DHT22;20046;50.746;7.072;2024-03-07T06:06:03;3.10;99.90
33717;DHT22;20046;50.746;7.072;2024-03-07T06:08:32;3.10;99.90
33717;DHT22;20046;50.746;7.072;2024-03-07T06:10:57;3.20;99.90
33717;DHT22;20046;50.746;7.072;2024-03-07T06:13:23;3.20;99.90
33717;DHT22;20046;50.746;7.072;2024-03-07T06:15:49;3.20;99.90
33717;DHT22;20046;50.746;7.072;2024-03-07T06:18:14;3.30;99.90
33717;DHT22;20046;50.746;7.072;2024-03-07T06:20:40;3.30;99.90
33717;DHT22;20046;50.746;7.072;2024-03-07T06:23:06;3.30;99.90
33717;DHT22;20046;50.746;7.072;2024-03-07T06:25:32;3.30;99.90
33717;DHT22;20046;50.746;7.072;2024-03-07T06:28:13;3.30;99.90
33717;DHT22;20046;50.746;7.072;2024-03-07T06:30:43;3.40;99.90
33717;DHT22;20046;50.746;7.072;2024-03-07T06:33:10;3.50;99.90
33717;DHT22;20046;50.746;7.072;2024-03-07T06:35:36;3.50;99.90
33717;DHT22;20046;50.746;7.072;2024-03-07T06:38:11;3.60;99.90
33717;DHT22;20046;50.746;7.072;2024-03-07T06:40:39;3.70;99.90
33717;DHT22;20046;50.746;7.072;2024-03-07T06:43:11;3.70;99.90
33717;DHT22;20046;50.746;7.072;2024-03-07T06:45:37;3.80;99.90
33717;DHT22;20046;50.746;7.072;2024-03-07T06:48:05;4.00;99.90
33717;DHT22;20046;50.746;7.072;2024-03-07T06:50:32;4.20;99.90
33717;DHT22;20046;50.746;7.072;2024-03-07T06:52:58;4.40;99.90
33717;DHT22;20046;50.746;7.072;2024-03-07T06:55:23;4.50;99.90
33717;DHT22;20046;50.746;7.072;2024-03-07T06:57:49;4.60;99.90
33717;DHT22;20046;50.746;7.072;2024-03-07T07:00:15;4.80;99.90
33717;DHT22;20046;50.746;7.072;2024-03-07T07:02:48;5.00;99.90
33717;DHT22;20046;50.746;7.072;2024-03-07T07:05:13;5.40;99.90
33717;DHT22;20046;50.746;7.072;2024-03-07T07:07:47;5.90;99.90
33717;DHT22;20046;50.746;7.072;2024-03-07T07:10:13;6.20;99.90
33717;DHT22;20046;50.746;7.072;2024-03-07T07:12:44;6.50;99.90
33717;DHT22;20046;50.746;7.072;2024-03-07T07:15:11;6.70;99.90
33717;DHT22;20046;50.746;7.072;2024-03-07T07:17:38;7.00;99.90
33717;DHT22;20046;50.746;7.072;2024-03-07T07:20:04;7.10;99.90
33717;DHT22;20046;50.746;7.072;2024-03-07T07:22:36;7.00;99.90
33717;DHT22;20046;50.746;7.072;2024-03-07T07:25:03;7.10;99.90
33717;DHT22;20046;50.746;7.072;2024-03-07T07:27:33;7.30;99.90
33717;DHT22;20046;50.746;7.072;2024-03-07T07:29:59;7.40;99.90
33717;DHT22;20046;50.746;7.072;2024-03-07T07:32:24;7.90;99.90
33717;DHT22;20046;50.746;7.072;2024-03-07T07:34:50;8.20;99.90
33717;DHT22;20046;50.746;7.072;2024-03-07T07:37:16;8.40;99.90
33717;DHT22;20046;50.746;7.072;2024-03-07T07:39:41;8.40;99.90
33717;DHT22;20046;50.746;7.072;2024-03-07T07:42:07;8.60;99.90
33717;DHT22;20046;50.746;7.072;2024-03-07T07:44:35;8.70;99.90
33717;DHT22;20046;50.746;7.072;2024-03-07T07:47:00;8.70;99.90
33717;DHT22;20046;50.746;7.072;2024-03-07T07:49:26;8.60;99.90
33717;DHT22;20046;50.746;7.072;2024-03-07T07:51:52;8.70;99.90
33717;DHT22;20046;50.746;7.072;2024-03-07T07:54:19;8.70;99.90
33717;DHT22;20046;50.746;7.072;2024-03-07T07:56:45;8.50;99.90
33717;DHT22;20046;50.746;7.072;2024-03-07T07:59:13;8.60;99.90
33717;DHT22;20046;50.746;7.072;2024-03-07T08:01:39;9.30;99.90
33717;DHT22;20046;50.746;7.072;2024-03-07T08:04:05;9.80;99.90
33717;DHT22;20046;50.746;7.072;2024-03-07T08:06:31;9.70;99.90
33717;DHT22;20046;50.746;7.072;2024-03-07T08:08:57;9.60;99.90
33717;DHT22;20046;50.746;7.072;2024-03-07T08:11:22;9.90;99.90
33717;DHT22;20046;50.746;7.072;2024-03-07T08:13:48;9.80;99.90
33717;DHT22;20046;50.746;7.072;2024-03-07T08:16:16;10.10;99.90
33717;DHT22;20046;50.746;7.072;2024-03-07T08:18:42;10.30;99.90
33717;DHT22;20046;50.746;7.072;2024-03-07T08:21:07;10.40;99.90
33717;DHT22;20046;50.746;7.072;2024-03-07T08:23:36;10.50;99.90
33717;DHT22;20046;50.746;7.072;2024-03-07T08:26:02;10.40;99.90
33717;DHT22;20046;50.746;7.072;2024-03-07T08:28:28;10.60;99.90
33717;DHT22;20046;50.746;7.072;2024-03-07T08:30:53;10.80;99.90
33717;DHT22;20046;50.746;7.072;2024-03-07T08:33:20;10.60;99.90
33717;DHT22;20046;50.746;7.072;2024-03-07T08:35:47;11.00;99.90
33717;DHT22;20046;50.746;7.072;2024-03-07T08:38:13;11.10;99.90
33717;DHT22;20046;50.746;7.072;2024-03-07T08:40:38;10.60;99.90
33717;DHT22;20046;50.746;7.072;2024-03-07T08:43:04;10.80;99.90
33717;DHT22;20046;50.746;7.072;2024-03-07T08:45:32;11.00;99.90
33717;DHT22;20046;50.746;7.072;2024-03-07T08:48:01;11.10;99.90
33717;DHT22;20046;50.746;7.072;2024-03-07T08:50:29;10.80;99.90
33717;DHT22;20046;50.746;7.072;2024-03-07T08:52:55;10.80;99.90
33717;DHT22;20046;50.746;7.072;2024-03-07T08:55:23;11.10;99.90
33717;DHT22;20046;50.746;7.072;2024-03-07T08:57:50;11.70;99.90
33717;DHT22;20046;50.746;7.072;2024-03-07T09:00:18;11.50;99.90
33717;DHT22;20046;50.746;7.072;2024-03-07T09:02:50;10.90;99.90
33717;DHT22;20046;50.746;7.072;2024-03-07T09:05:20;10.20;99.90
33717;DHT22;20046;50.746;7.072;2024-03-07T09:07:48;9.60;99.90
33717;DHT22;20046;50.746;7.072;2024-03-07T09:10:14;9.30;99.90
33717;DHT22;20046;50.746;7.072;2024-03-07T09:12:46;9.10;99.90
33717;DHT22;20046;50.746;7.072;2024-03-07T09:15:15;8.90;99.90
33717;DHT22;20046;50.746;7.072;2024-03-07T09:17:42;8.50;99.90
33717;DHT22;20046;50.746;7.072;2024-03-07T09:20:08;8.40;99.90
33717;DHT22;20046;50.746;7.072;2024-03-07T09:22:43;8.60;99.90
33717;DHT22;20046;50.746;7.072;2024-03-07T09:25:09;9.40;99.90
33717;DHT22;20046;50.746;7.072;2024-03-07T09:27:36;10.10;99.90
33717;DHT22;20046;50.746;7.072;2024-03-07T09:30:01;10.50;99.90
33717;DHT22;20046;50.746;7.072;2024-03-07T09:32:27;11.10;99.90
33717;DHT22;20046;50.746;7.072;2024-03-07T09:34:53;11.90;99.90
33717;DHT22;20046;50.746;7.072;2024-03-07T09:37:20;12.10;99.90
33717;DHT22;20046;50.746;7.072;2024-03-07T09:39:47;12.00;99.90
33717;DHT22;20046;50.746;7.072;2024-03-07T09:42:17;12.30;99.90
33717;DHT22;20046;50.746;7.072;2024-03-07T09:44:43;11.80;99.90
33717;DHT22;20046;50.746;7.072;2024-03-07T09:47:12;11.90;99.90
33717;DHT22;20046;50.746;7.072;2024-03-07T09:49:39;11.60;99.90
33717;DHT22;20046;50.746;7.072;2024-03-07T09:52:07;11.00;99.90
33717;DHT22;20046;50.746;7.072;2024-03-07T09:54:37;11.20;99.90
33717;DHT22;20046;50.746;7.072;2024-03-07T09:57:05;11.00;99.90
33717;DHT22;20046;50.746;7.072;2024-03-07T09:59:34;11.00;99.90
33717;DHT22;20046;50.746;7.072;2024-03-07T10:02:03;11.20;99.90
33717;DHT22;20046;50.746;7.072;2024-03-07T10:04:38;11.30;99.90
33717;DHT22;20046;50.746;7.072;2024-03-07T10:07:09;11.70;99.90
33717;DHT22;20046;50.746;7.072;2024-03-07T10:09:38;12.10;99.90
33717;DHT22;20046;50.746;7.072;2024-03-07T10:12:03;12.00;99.90
33717;DHT22;20046;50.746;7.072;2024-03-07T10:14:32;11.40;99.90
33717;DHT22;20046;50.746;7.072;2024-03-07T10:16:58;11.60;99.90
33717;DHT22;20046;50.746;7.072;2024-03-07T10:19:24;11.90;99.90
33717;DHT22;20046;50.746;7.072;2024-03-07T10:21:50;12.40;99.30
33717;DHT22;20046;50.746;7.072;2024-03-07T10:24:17;12.10;99.40
33717;DHT22;20046;50.746;7.072;2024-03-07T10:26:43;11.80;99.60
33717;DHT22;20046;50.746;7.072;2024-03-07T10:29:09;11.80;99.20
33717;DHT22;20046;50.746;7.072;2024-03-07T10:31:35;12.40;99.60
33717;DHT22;20046;50.746;7.072;2024-03-07T10:34:03;12.30;98.50
33717;DHT22;20046;50.746;7.072;2024-03-07T10:36:30;13.00;98.40
33717;DHT22;20046;50.746;7.072;2024-03-07T10:39:02;13.50;97.80
33717;DHT22;20046;50.746;7.072;2024-03-07T10:41:39;13.60;96.70
33717;DHT22;20046;50.746;7.072;2024-03-07T10:44:09;13.70;97.20
33717;DHT22;20046;50.746;7.072;2024-03-07T10:46:36;13.90;96.80
33717;DHT22;20046;50.746;7.072;2024-03-07T10:49:03;14.10;96.60
33717;DHT22;20046;50.746;7.072;2024-03-07T10:51:40;14.40;96.00
33717;DHT22;20046;50.746;7.072;2024-03-07T10:54:33;14.50;95.50
33717;DHT22;20046;50.746;7.072;2024-03-07T10:57:23;14.60;95.20
33717;DHT22;20046;50.746;7.072;2024-03-07T11:00:03;14.40;95.30
33717;DHT22;20046;50.746;7.072;2024-03-07T11:02:55;14.70;95.20
33717;DHT22;20046;50.746;7.072;2024-03-07T11:05:25;14.00;95.20
33717;DHT22;20046;50.746;7.072;2024-03-07T11:07:58;13.70;95.80
33717;DHT22;20046;50.746;7.072;2024-03-07T11:10:24;12.80;96.80
33717;DHT22;20046;50.746;7.072;2024-03-07T11:12:50;13.00;96.60
33717;DHT22;20046;50.746;7.072;2024-03-07T11:15:17;13.20;96.70
33717;DHT22;20046;50.746;7.072;2024-03-07T11:17:48;13.60;96.10
33717;DHT22;20046;50.746;7.072;2024-03-07T11:20:22;13.20;96.00
33717;DHT22;20046;50.746;7.072;2024-03-07T11:22:48;12.90;96.40
33717;DHT22;20046;50.746;7.072;2024-03-07T11:25:18;11.90;97.10
33717;DHT22;20046;50.746;7.072;2024-03-07T11:27:55;11.40;98.20
33717;DHT22;20046;50.746;7.072;2024-03-07T11:30:21;11.20;98.40
33717;DHT22;20046;50.746;7.072;2024-03-07T11:32:48;11.00;98.70
33717;DHT22;20046;50.746;7.072;2024-03-07T11:35:31;10.80;99.10
33717;DHT22;20046;50.746;7.072;2024-03-07T11:37:58;10.80;99.20
33717;DHT22;20046;50.746;7.072;2024-03-07T11:42:54;11.80;98.40
33717;DHT22;20046;50.746;7.072;2024-03-07T11:45:22;11.50;98.40
33717;DHT22;20046;50.746;7.072;2024-03-07T11:47:55;12.50;98.90
33717;DHT22;20046;50.746;7.072;2024-03-07T11:50:34;12.90;97.30
33717;DHT22;20046;50.746;7.072;2024-03-07T11:53:04;12.80;97.60
33717;DHT22;20046;50.746;7.072;2024-03-07T11:55:31;14.00;96.90
33717;DHT22;20046;50.746;7.072;2024-03-07T11:58:20;14.10;96.10
33717;DHT22;20046;50.746;7.072;2024-03-07T12:00:51;14.30;96.00
33717;DHT22;20046;50.746;7.072;2024-03-07T12:03:19;14.00;96.00
33717;DHT22;20046;50.746;7.072;2024-03-07T12:05:47;13.40;95.70
33717;DHT22;20046;50.746;7.072;2024-03-07T12:08:14;12.60;96.80
33717;DHT22;20046;50.746;7.072;2024-03-07T12:10:41;12.60;97.30
33717;DHT22;20046;50.746;7.072;2024-03-07T12:13:11;11.90;97.50
33717;DHT22;20046;50.746;7.072;2024-03-07T12:15:38;11.80;98.20
33717;DHT22;20046;50.746;7.072;2024-03-07T12:18:05;11.50;98.20
33717;DHT22;20046;50.746;7.072;2024-03-07T12:20:37;11.30;98.60
33717;DHT22;20046;50.746;7.072;2024-03-07T12:23:04;11.30;98.70
33717;DHT22;20046;50.746;7.072;2024-03-07T12:25:36;11.50;99.10
33717;DHT22;20046;50.746;7.072;2024-03-07T12:28:03;11.60;99.10
33717;DHT22;20046;50.746;7.072;2024-03-07T12:30:32;11.70;98.80
33717;DHT22;20046;50.746;7.072;2024-03-07T12:32:59;11.50;99.10
33717;DHT22;20046;50.746;7.072;2024-03-07T12:35:25;11.20;99.30
33717;DHT22;20046;50.746;7.072;2024-03-07T12:37:51;10.90;99.70
33717;DHT22;20046;50.746;7.072;2024-03-07T12:40:19;10.90;99.70
33717;DHT22;20046;50.746;7.072;2024-03-07T12:42:51;11.00;99.70
33717;DHT22;20046;50.746;7.072;2024-03-07T12:45:19;11.10;99.80
33717;DHT22;20046;50.746;7.072;2024-03-07T12:47:47;11.30;99.90
33717;DHT22;20046;50.746;7.072;2024-03-07T12:50:16;11.50;99.90
33717;DHT22;20046;50.746;7.072;2024-03-07T12:52:42;11.60;99.90
33717;DHT22;20046;50.746;7.072;2024-03-07T12:55:07;11.60;99.90
33717;DHT22;20046;50.746;7.072;2024-03-07T12:57:33;11.40;99.70
33717;DHT22;20046;50.746;7.072;2024-03-07T12:59:59;11.50;99.90
33717;DHT22;20046;50.746;7.072;2024-03-07T13:02:24;11.50;99.90
33717;DHT22;20046;50.746;7.072;2024-03-07T13:04:53;11.50;99.90
33717;DHT22;20046;50.746;7.072;2024-03-07T13:07:18;11.30;99.90
33717;DHT22;20046;50.746;7.072;2024-03-07T13:09:44;11.40;99.90
33717;DHT22;20046;50.746;7.072;2024-03-07T13:12:09;11.30;99.60
33717;DHT22;20046;50.746;7.072;2024-03-07T13:14:35;11.20;99.90
33717;DHT22;20046;50.746;7.072;2024-03-07T13:17:02;11.10;99.90
33717;DHT22;20046;50.746;7.072;2024-03-07T13:19:34;11.20;99.90
33717;DHT22;20046;50.746;7.072;2024-03-07T13:21:59;10.90;99.90
33717;DHT22;20046;50.746;7.072;2024-03-07T13:24:27;10.80;99.90
33717;DHT22;20046;50.746;7.072;2024-03-07T13:26:53;10.70;99.90
33717;DHT22;20046;50.746;7.072;2024-03-07T13:29:19;10.60;99.90
33717;DHT22;20046;50.746;7.072;2024-03-07T13:31:50;10.40;99.90
33717;DHT22;20046;50.746;7.072;2024-03-07T13:34:16;10.30;99.90
33717;DHT22;20046;50.746;7.072;2024-03-07T13:36:43;10.10;99.90
33717;DHT22;20046;50.746;7.072;2024-03-07T13:39:09;10.20;99.90
33717;DHT22;20046;50.746;7.072;2024-03-07T13:41:42;10.30;99.90
33717;DHT22;20046;50.746;7.072;2024-03-07T13:44:08;10.30;99.90
33717;DHT22;20046;50.746;7.072;2024-03-07T13:46:34;10.20;99.90
33717;DHT22;20046;50.746;7.072;2024-03-07T13:49:00;10.30;99.90
33717;DHT22;20046;50.746;7.072;2024-03-07T13:51:42;10.30;99.90
33717;DHT22;20046;50.746;7.072;2024-03-07T13:54:19;10.40;99.90
33717;DHT22;20046;50.746;7.072;2024-03-07T13:59:54;10.30;99.90
33717;DHT22;20046;50.746;7.072;2024-03-07T14:02:56;10.20;99.90
33717;DHT22;20046;50.746;7.072;2024-03-07T14:16:50;10.40;99.90
33717;DHT22;20046;50.746;7.072;2024-03-07T14:22:30;10.60;99.90
33717;DHT22;20046;50.746;7.072;2024-03-07T14:28:05;10.30;99.90
33717;DHT22;20046;50.746;7.072;2024-03-07T14:30:55;10.30;99.90
33717;DHT22;20046;50.746;7.072;2024-03-07T14:33:32;10.20;99.90
33717;DHT22;20046;50.746;7.072;2024-03-07T14:38:44;10.30;99.90
33717;DHT22;20046;50.746;7.072;2024-03-07T14:41:14;10.20;99.90
33717;DHT22;20046;50.746;7.072;2024-03-07T14:43:40;10.00;99.90
33717;DHT22;20046;50.746;7.072;2024-03-07T14:46:10;9.90;99.90
33717;DHT22;20046;50.746;7.072;2024-03-07T14:48:39;9.80;99.90
33717;DHT22;20046;50.746;7.072;2024-03-07T14:51:07;9.80;99.90
33717;DHT22;20046;50.746;7.072;2024-03-07T14:53:33;9.70;99.90
33717;DHT22;20046;50.746;7.072;2024-03-07T14:55:58;9.70;99.90
33717;DHT22;20046;50.746;7.072;2024-03-07T14:58:25;9.70;99.90
33717;DHT22;20046;50.746;7.072;2024-03-07T15:00:50;9.70;99.90
33717;DHT22;20046;50.746;7.072;2024-03-07T15:03:18;9.60;99.90
33717;DHT22;20046;50.746;7.072;2024-03-07T15:05:45;9.60;99.90
33717;DHT22;20046;50.746;7.072;2024-03-07T15:08:11;9.60;99.90
33717;DHT22;20046;50.746;7.072;2024-03-07T15:10:40;9.60;99.90
33717;DHT22;20046;50.746;7.072;2024-03-07T15:13:07;9.60;99.90
33717;DHT22;20046;50.746;7.072;2024-03-07T15:15:38;9.60;99.90
33717;DHT22;20046;50.746;7.072;2024-03-07T15:18:05;9.50;99.90
33717;DHT22;20046;50.746;7.072;2024-03-07T15:20:31;9.60;99.90
33717;DHT22;20046;50.746;7.072;2024-03-07T15:22:58;9.60;99.90
33717;DHT22;20046;50.746;7.072;2024-03-07T15:25:25;9.60;99.90
33717;DHT22;20046;50.746;7.072;2024-03-07T15:27:54;9.60;99.90
33717;DHT22;20046;50.746;7.072;2024-03-07T15:30:25;9.50;99.90
33717;DHT22;20046;50.746;7.072;2024-03-07T15:32:57;9.50;99.90
33717;DHT22;20046;50.746;7.072;2024-03-07T15:35:25;9.60;99.90
33717;DHT22;20046;50.746;7.072;2024-03-07T15:37:52;9.60;99.90
33717;DHT22;20046;50.746;7.072;2024-03-07T15:40:20;9.50;99.90
33717;DHT22;20046;50.746;7.072;2024-03-07T15:42:55;9.50;99.90
33717;DHT22;20046;50.746;7.072;2024-03-07T15:45:23;9.40;99.90
33717;DHT22;20046;50.746;7.072;2024-03-07T15:47:52;9.40;99.90
33717;DHT22;20046;50.746;7.072;2024-03-07T15:50:19;9.40;99.90
33717;DHT22;20046;50.746;7.072;2024-03-07T15:52:46;9.40;99.90
33717;DHT22;20046;50.746;7.072;2024-03-07T15:55:12;9.40;99.90
33717;DHT22;20046;50.746;7.072;2024-03-07T15:57:49;9.40;99.90
33717;DHT22;20046;50.746;7.072;2024-03-07T16:00:22;9.40;99.90
33717;DHT22;20046;50.746;7.072;2024-03-07T16:02:59;9.40;99.90
33717;DHT22;20046;50.746;7.072;2024-03-07T16:05:30;9.40;99.90
33717;DHT22;20046;50.746;7.072;2024-03-07T16:07:57;9.40;99.90
33717;DHT22;20046;50.746;7.072;2024-03-07T16:10:27;9.30;99.90